Oxelosund, Sweden
Current Conditions -  °F | °C
As of 10:20 AM on Monday 20 Oct 2014 (Local Time) from ESKN Reporting Station
Rain Showers Rain Showers  
Wind Chill: 52°   Ceiling: 600
Heat Index: 52°   Visibility: 2.1mi
Dew Point: 52°   Wind: 9mph
Humidity: 100%   Direction: 250°WSW
Pressure: 29.32"   Gusts: NA
Location:  58.67°N, 17.1°E
Report Text: ESKN 200820Z 25008KT 3500 SHRA BKN006 FEW016CB 11/11 Q0993
Loading
Personal Weather Stations






























Interactive Weather Map
Tropical Storm Tracking
New forecast layout! Learn more

10-Day Weather Forecast

Advertisements
Track Severe Weather on mobile